Airfield :
LOGIN :

Register | Disclaimer

   EN    FR    IT 

 










Legend :    VFR   Marginal VFR   IFR   Intensive IFR   Very Intensive IFR
Visi :
Ceiling :
>= 8 km
>= 3000ft
5 to 8 km
1000 to 3000 ft
1500m to 5 km
500 to 1000 ft
800 to 1500m
200 to 500 ft
< 800m
< 200 ft
Symbols :   Thunderstorms  Fog  Heavy snow  Heavy precipitations  Wind > 20 kt
SIGMETs :     Misc.  Thunderstorms  Icing  Turbulence  Mountain Waves  Volcanic Ashes







- Airport Elevation : 184 ft
- IATA code : BRU


EBBR - Bruxelles

CURRENT METAR :
  • 240420Z 01003KT 9999 FEW011 BKN039 06/04 Q1029 TEMPO BKN013

EXPIRED METARs :
  • 240350Z 02004KT 350V050 9999 SCT011 BKN036 06/05 Q1029 TEMPO BKN013
  • 240320Z 02005KT 9999 SCT013 BKN030 06/05 Q1029 TEMPO BKN013
  • 240250Z 02004KT 9999 SCT025 BKN036 06/04 Q1029 NOSIG
  • 240220Z 01004KT 9999 BKN033 06/04 Q1029 NOSIG
  • 240150Z 01004KT 9999 SCT018 BKN033 07/04 Q1029 NOSIG

TAF TAF EBBR
Valid from the 24 at 00:00 until the 25 at 06:00 UTC


232315Z 2400/2506 02005KT 9999 FEW022 BKN035
BECMG 2502/2504 30010KT
PROB30
TEMPO 2504/2506 SHRA
No reported NOTAMs for that airfield.



MET'MAP, your aeronautical weather chart ! - Copyright ORBIFLY December 2007 - Disclaimer

ORBIFLY MET'MAP TEAM :

Programming & Development : Alexandra Zaïnal
Concept & Development : Baudouin d'Aumeries
Co-Development & Prog : Marc-Olivier Méhu
Technical & hardware support : Manuel Goepfert

Contact : metmap@orbifly.com




SOURCES & CREDITS :

   NOAA